createdAt,value
2023-05-11T00:00:33.685Z,4.18
2023-05-11T00:02:38.010Z,4.55
2023-05-11T00:04:42.069Z,2.58
2023-05-11T00:06:46.442Z,5.38
2023-05-11T00:08:52.511Z,4.47
2023-05-11T00:10:56.746Z,3.95
2023-05-11T00:13:00.847Z,4.82
2023-05-11T00:15:05.241Z,3.42
2023-05-11T00:17:09.630Z,5.20
2023-05-11T00:19:13.878Z,3.60
2023-05-11T00:21:18.110Z,7.15
2023-05-11T00:23:22.208Z,3.67
2023-05-11T00:25:27.633Z,5.05
2023-05-11T00:27:31.495Z,3.33
2023-05-11T00:29:35.678Z,3.38
2023-05-11T00:31:39.537Z,4.40
2023-05-11T00:33:43.674Z,4.10
2023-05-11T00:35:49.531Z,4.03
2023-05-11T00:37:53.518Z,5.25
2023-05-11T00:39:57.404Z,5.32
2023-05-11T00:42:03.969Z,4.00
2023-05-11T00:44:08.538Z,4.28
2023-05-11T00:46:12.510Z,1.70
2023-05-11T00:48:16.785Z,2.38
2023-05-11T00:50:20.942Z,3.33
2023-05-11T00:52:25.217Z,1.70
2023-05-11T00:54:29.400Z,3.13
2023-05-11T00:56:33.388Z,4.95
2023-05-11T00:58:39.858Z,2.92
2023-05-11T01:00:44.873Z,2.50
2023-05-11T01:02:49.378Z,4.43
2023-05-11T01:04:53.336Z,2.75
2023-05-11T01:07:05.922Z,5.03
2023-05-11T01:09:18.886Z,3.63
2023-05-11T01:11:31.072Z,4.55
2023-05-11T01:13:41.099Z,4.85
2023-05-11T01:17:57.515Z,6.78
2023-05-11T01:20:07.473Z,3.15
2023-05-11T01:22:23.474Z,3.15
2023-05-11T01:24:39.314Z,2.08
2023-05-11T01:27:00.813Z,4.75
2023-05-11T01:29:26.125Z,7.10
2023-05-11T01:31:32.642Z,5.07
2023-05-11T01:33:41.014Z,4.13
2023-05-11T01:35:52.421Z,3.47
2023-05-11T01:37:58.872Z,4.72
2023-05-11T01:40:06.168Z,3.80
2023-05-11T01:42:11.572Z,6.03
2023-05-11T01:44:18.291Z,3.72
2023-05-11T01:46:25.390Z,4.30
2023-05-11T01:48:33.334Z,4.55
2023-05-11T01:50:39.123Z,5.88
2023-05-11T01:52:44.134Z,5.65
2023-05-11T01:56:54.368Z,6.40
2023-05-11T01:59:01.072Z,4.03
2023-05-11T02:01:05.439Z,6.95
2023-05-11T02:03:11.409Z,7.40
2023-05-11T02:05:20.874Z,4.05
2023-05-11T02:07:26.004Z,5.78
2023-05-11T02:09:33.352Z,7.97
2023-05-11T02:11:39.536Z,3.45
2023-05-11T02:13:46.344Z,7.00
2023-05-11T02:15:54.281Z,5.50
2023-05-11T02:18:00.286Z,4.57
2023-05-11T02:22:12.689Z,6.93
2023-05-11T02:24:17.390Z,4.32
2023-05-11T02:26:20.828Z,9.48
2023-05-11T02:28:24.367Z,6.53
2023-05-11T02:30:30.319Z,5.40
2023-05-11T02:32:39.491Z,6.00
2023-05-11T02:34:44.836Z,7.22
2023-05-11T02:36:50.477Z,5.03
2023-05-11T02:39:04.022Z,6.47
2023-05-11T02:41:14.804Z,2.28
2023-05-11T02:43:24.684Z,7.43
2023-05-11T02:45:36.858Z,4.40
2023-05-11T02:47:47.305Z,5.90
2023-05-11T02:49:58.643Z,3.53
2023-05-11T02:52:05.347Z,4.13
2023-05-11T02:54:15.590Z,6.93
2023-05-11T02:56:25.776Z,7.20
2023-05-11T02:58:31.499Z,9.00
2023-05-11T03:00:48.093Z,5.22
2023-05-11T03:02:51.697Z,4.55
2023-05-11T03:04:57.900Z,6.68
2023-05-11T03:07:01.727Z,4.95
2023-05-11T03:09:05.837Z,7.30
2023-05-11T03:11:16.232Z,6.75
2023-05-11T03:13:24.012Z,6.65
2023-05-11T03:15:30.556Z,7.80
2023-05-11T03:17:37.216Z,6.65
2023-05-11T03:19:43.629Z,4.65
2023-05-11T03:21:48.969Z,4.53
2023-05-11T03:23:52.891Z,4.45
2023-05-11T03:25:56.894Z,5.22
2023-05-11T03:30:11.158Z,5.38
2023-05-11T03:32:19.290Z,8.35
2023-05-11T03:34:23.527Z,5.97
2023-05-11T03:36:28.405Z,7.13
2023-05-11T03:38:33.682Z,3.55
2023-05-11T03:40:39.628Z,5.80
2023-05-11T03:42:44.847Z,6.32
2023-05-11T03:44:51.144Z,6.03
2023-05-11T03:46:55.825Z,7.28
2023-05-11T03:49:00.534Z,7.35
2023-05-11T03:51:06.534Z,6.30
2023-05-11T03:53:10.396Z,7.40
2023-05-11T03:55:13.889Z,8.05
2023-05-11T03:57:17.830Z,4.10
2023-05-11T03:59:22.668Z,4.15
2023-05-11T04:01:28.498Z,6.25
2023-05-11T04:03:32.002Z,3.75
2023-05-11T04:05:35.761Z,5.03
2023-05-11T04:07:41.620Z,4.70
2023-05-11T04:09:44.915Z,4.82
2023-05-11T04:11:48.793Z,4.65
2023-05-11T04:13:52.292Z,5.95
2023-05-11T04:15:55.646Z,6.10
2023-05-11T04:18:00.525Z,10.35
2023-05-11T04:20:04.050Z,5.00
2023-05-11T04:22:07.462Z,7.40
2023-05-11T04:24:11.002Z,7.45
2023-05-11T04:26:16.717Z,5.65
2023-05-11T04:28:20.353Z,7.53
2023-05-11T04:30:24.537Z,4.82
2023-05-11T04:32:28.672Z,10.77
2023-05-11T04:34:35.183Z,6.38
2023-05-11T04:36:42.322Z,4.25
2023-05-11T04:40:50.963Z,7.13
2023-05-11T04:42:56.406Z,6.45
2023-05-11T04:45:00.691Z,4.68
2023-05-11T04:47:05.064Z,7.93
2023-05-11T04:49:09.702Z,4.20
2023-05-11T04:51:17.762Z,8.95
2023-05-11T04:53:22.515Z,6.28
2023-05-11T04:55:26.833Z,8.68
2023-05-11T04:57:32.952Z,8.20
2023-05-11T04:59:38.329Z,5.25
2023-05-11T05:01:42.288Z,7.10
2023-05-11T05:03:49.548Z,13.82
2023-05-11T05:05:55.534Z,5.90
2023-05-11T05:08:01.212Z,9.48
2023-05-11T05:10:09.387Z,6.68
2023-05-11T05:12:13.633Z,7.93
2023-05-11T05:14:17.802Z,15.20
2023-05-11T05:16:21.941Z,8.60
2023-05-11T05:18:26.234Z,10.10
2023-05-11T05:20:30.003Z,9.75
2023-05-11T05:22:35.421Z,7.85
2023-05-11T05:24:41.297Z,9.02
2023-05-11T05:26:45.928Z,9.00
2023-05-11T05:28:50.375Z,5.22
2023-05-11T05:30:56.510Z,7.32
2023-05-11T05:33:00.934Z,9.07
2023-05-11T05:35:05.109Z,9.18
2023-05-11T05:37:08.672Z,11.65
2023-05-11T05:39:12.914Z,12.65
2023-05-11T05:43:23.352Z,10.20
2023-05-11T05:45:27.411Z,16.48
2023-05-11T05:47:32.112Z,11.75
2023-05-11T05:49:36.296Z,6.47
2023-05-11T05:51:41.845Z,7.00
2023-05-11T05:53:45.870Z,6.13
2023-05-11T05:55:50.255Z,5.25
2023-05-11T05:57:55.544Z,12.55
2023-05-11T05:59:59.466Z,9.18
2023-05-11T06:02:03.522Z,7.93
2023-05-11T06:04:08.451Z,7.13
2023-05-11T06:06:13.203Z,9.73
2023-05-11T06:08:17.458Z,8.07
2023-05-11T06:10:22.016Z,4.25
2023-05-11T06:12:26.141Z,7.60
2023-05-11T06:14:33.817Z,6.07
2023-05-11T06:16:38.943Z,7.30
2023-05-11T06:18:42.829Z,5.72
2023-05-11T06:20:47.069Z,4.93
2023-05-11T06:22:52.335Z,9.15
2023-05-11T06:24:56.676Z,8.25
2023-05-11T06:27:01.911Z,8.18
2023-05-11T06:29:16.697Z,6.45
2023-05-11T06:31:25.226Z,9.82
2023-05-11T06:33:29.957Z,7.97
2023-05-11T06:35:34.008Z,7.68
2023-05-11T06:37:38.418Z,3.75
2023-05-11T06:39:42.546Z,12.38
2023-05-11T06:41:46.429Z,7.18
2023-05-11T06:43:50.490Z,9.73
2023-05-11T06:46:06.495Z,10.32
2023-05-11T06:48:12.061Z,10.77
2023-05-11T06:50:16.395Z,8.95
2023-05-11T06:52:20.170Z,5.70
2023-05-11T06:54:27.143Z,8.15
2023-05-11T06:56:32.353Z,6.50
2023-05-11T06:58:36.264Z,10.13
2023-05-11T07:00:39.991Z,5.68
2023-05-11T07:02:43.754Z,5.95
2023-05-11T07:04:49.119Z,5.00
2023-05-11T07:06:53.141Z,10.63
2023-05-11T07:08:57.029Z,7.57
2023-05-11T07:11:01.535Z,8.85
2023-05-11T07:13:05.610Z,9.07
2023-05-11T07:15:10.689Z,5.30
2023-05-11T07:19:18.118Z,5.43
2023-05-11T07:21:23.532Z,11.27
2023-05-11T07:23:27.449Z,6.18
2023-05-11T07:25:31.206Z,8.23
2023-05-11T07:27:35.132Z,10.25
2023-05-11T07:29:38.816Z,7.70
2023-05-11T07:31:43.161Z,9.32
2023-05-11T07:33:47.533Z,6.22
2023-05-11T07:35:52.544Z,6.75
2023-05-11T07:37:57.771Z,9.20
2023-05-11T07:40:01.371Z,5.05
2023-05-11T07:42:05.223Z,7.40
2023-05-11T07:44:08.866Z,6.28
2023-05-11T07:46:12.493Z,6.30
2023-05-11T07:48:16.651Z,5.80
2023-05-11T07:50:22.929Z,6.72
2023-05-11T07:52:28.017Z,8.63
2023-05-11T07:54:33.047Z,4.53
2023-05-11T07:56:36.714Z,8.15
2023-05-11T07:58:40.394Z,11.05
2023-05-11T08:00:44.223Z,6.60
2023-05-11T08:02:48.104Z,6.40
2023-05-11T08:04:51.954Z,6.70
2023-05-11T08:06:56.853Z,7.00
2023-05-11T08:09:00.651Z,10.90
2023-05-11T08:11:06.584Z,6.15
2023-05-11T08:13:10.424Z,6.15
2023-05-11T08:15:14.533Z,8.93
2023-05-11T08:17:18.758Z,15.90
2023-05-11T08:19:22.745Z,4.20
2023-05-11T08:21:26.826Z,5.43
2023-05-11T08:23:30.773Z,6.15
2023-05-11T08:25:35.306Z,7.95
2023-05-11T08:27:41.319Z,6.78
2023-05-11T08:29:45.705Z,5.00
2023-05-11T08:31:50.984Z,6.00
2023-05-11T08:33:54.850Z,5.55
2023-05-11T08:35:58.758Z,6.70
2023-05-11T08:38:02.518Z,6.43
2023-05-11T08:40:07.036Z,4.65
2023-05-11T08:42:14.132Z,7.30
2023-05-11T08:44:20.348Z,5.10
2023-05-11T08:46:27.538Z,5.75
2023-05-11T08:48:31.897Z,5.20
2023-05-11T08:50:36.002Z,6.47
2023-05-11T08:52:41.019Z,4.50
2023-05-11T08:54:45.164Z,4.88
2023-05-11T08:56:51.904Z,1.98
2023-05-11T08:58:57.630Z,4.63
2023-05-11T09:01:04.064Z,6.38
2023-05-11T09:03:08.602Z,7.40
2023-05-11T09:05:12.978Z,9.10
2023-05-11T09:07:18.809Z,4.70
2023-05-11T09:09:23.378Z,4.30
2023-05-11T09:11:28.020Z,4.65
2023-05-11T09:13:32.542Z,4.43
2023-05-11T09:15:38.297Z,3.78
2023-05-11T09:17:43.921Z,3.63
2023-05-11T09:20:01.364Z,3.88
2023-05-11T09:22:07.975Z,1.95
2023-05-11T09:24:14.449Z,2.08
2023-05-11T09:26:18.457Z,4.82
2023-05-11T09:28:26.956Z,5.32
2023-05-11T09:30:31.230Z,3.05
2023-05-11T09:32:50.656Z,3.58
2023-05-11T09:34:54.594Z,2.30
2023-05-11T09:36:58.625Z,2.08
2023-05-11T09:39:04.052Z,2.22
2023-05-11T09:41:08.525Z,6.38
2023-05-11T09:43:18.832Z,4.07
2023-05-11T09:45:42.242Z,4.22
2023-05-11T09:49:54.042Z,5.78
2023-05-11T09:52:02.669Z,4.57
2023-05-11T09:54:18.603Z,3.75
2023-05-11T09:56:22.310Z,3.63
2023-05-11T09:58:26.237Z,2.42
2023-05-11T10:00:30.024Z,6.40
2023-05-11T10:02:34.736Z,3.30
2023-05-11T10:04:38.735Z,3.63
2023-05-11T10:06:49.146Z,3.13
2023-05-11T10:08:52.942Z,2.60
2023-05-11T10:10:58.890Z,4.13
2023-05-11T10:13:04.435Z,2.85
2023-05-11T10:15:10.259Z,1.58
2023-05-11T10:17:16.003Z,1.75
2023-05-11T10:19:21.072Z,3.33
2023-05-11T10:21:24.975Z,1.50
2023-05-11T10:23:33.913Z,2.42
2023-05-11T10:25:37.624Z,2.95
2023-05-11T10:27:41.906Z,2.60
2023-05-11T10:29:45.906Z,4.07
2023-05-11T10:31:51.942Z,3.40
2023-05-11T10:33:57.448Z,4.15
2023-05-11T10:36:01.673Z,2.97
2023-05-11T10:38:06.879Z,1.85
2023-05-11T10:40:12.908Z,5.72
2023-05-11T10:42:39.712Z,3.75
2023-05-11T10:45:01.943Z,4.80
2023-05-11T10:47:22.998Z,2.17
2023-05-11T10:49:44.535Z,4.60
2023-05-11T10:52:03.631Z,4.25
2023-05-11T10:54:22.692Z,2.35
2023-05-11T10:56:42.511Z,2.03
2023-05-11T10:59:05.374Z,2.90
2023-05-11T11:01:28.243Z,2.08
2023-05-11T11:03:32.930Z,3.65
2023-05-11T11:05:38.285Z,2.55
2023-05-11T11:08:04.240Z,2.25
2023-05-11T11:10:10.234Z,6.00
2023-05-11T11:12:16.170Z,6.85
2023-05-11T11:14:20.359Z,4.45
2023-05-11T11:16:26.244Z,4.28
2023-05-11T11:18:30.944Z,3.28
2023-05-11T11:20:51.050Z,3.45
2023-05-11T11:22:54.636Z,4.15
2023-05-11T11:24:58.280Z,1.85
2023-05-11T11:27:01.907Z,2.78
2023-05-11T11:29:13.557Z,4.22
2023-05-11T11:31:27.839Z,3.85
2023-05-11T11:33:35.142Z,2.75
2023-05-11T11:35:49.036Z,2.67
2023-05-11T11:38:02.341Z,3.22
2023-05-11T11:40:14.605Z,4.28
2023-05-11T11:42:20.637Z,3.45
2023-05-11T11:44:25.886Z,3.65
2023-05-11T11:46:30.686Z,1.85
2023-05-11T11:50:41.673Z,5.05
2023-05-11T11:52:45.231Z,2.40
2023-05-11T11:54:49.094Z,2.10
2023-05-11T11:56:52.681Z,2.50
2023-05-11T11:59:00.534Z,3.33
2023-05-11T12:01:05.786Z,2.08
2023-05-11T12:03:11.721Z,1.95
2023-05-11T12:05:18.702Z,1.48
2023-05-11T12:07:23.069Z,4.80
2023-05-11T12:09:27.047Z,2.67
2023-05-11T12:11:31.500Z,2.03
2023-05-11T12:13:36.713Z,3.67
2023-05-11T12:15:40.314Z,2.33
2023-05-11T12:17:45.425Z,4.47
2023-05-11T12:19:48.991Z,2.83
2023-05-11T12:21:52.593Z,1.70
2023-05-11T12:23:57.515Z,3.17
2023-05-11T12:26:05.008Z,3.50
2023-05-11T12:28:09.615Z,3.83
2023-05-11T12:30:22.257Z,3.53
2023-05-11T12:32:30.727Z,5.50
2023-05-11T12:34:36.575Z,3.28
2023-05-11T12:36:41.390Z,4.80
2023-05-11T12:38:46.310Z,2.72
2023-05-11T12:40:53.780Z,4.10
2023-05-11T12:42:59.142Z,1.45
2023-05-11T12:45:03.387Z,2.15
2023-05-11T12:47:07.647Z,2.25
2023-05-11T12:49:14.097Z,1.60
2023-05-11T12:51:50.829Z,3.47
2023-05-11T12:53:55.048Z,2.15
2023-05-11T12:56:02.203Z,3.13
2023-05-11T12:58:10.127Z,1.90
2023-05-11T13:00:15.920Z,2.22
2023-05-11T13:02:21.962Z,2.95
2023-05-11T13:04:33.095Z,0.70
2023-05-11T13:08:47.140Z,3.70
2023-05-11T13:10:51.519Z,3.38
2023-05-11T13:12:56.428Z,3.83
2023-05-11T13:15:13.019Z,1.92
2023-05-11T13:17:31.578Z,3.30
2023-05-11T13:19:35.614Z,3.08
2023-05-11T13:21:39.542Z,1.98
2023-05-11T13:23:50.740Z,3.58
2023-05-11T13:27:59.168Z,2.38
2023-05-11T13:30:02.880Z,4.07
2023-05-11T13:32:07.374Z,1.48
2023-05-11T13:34:12.062Z,2.58
2023-05-11T13:36:15.702Z,2.40
2023-05-11T13:38:19.776Z,3.85
2023-05-11T13:40:25.600Z,1.10
2023-05-11T13:42:30.369Z,1.55
2023-05-11T13:44:34.244Z,1.98
2023-05-11T13:46:38.583Z,4.38
2023-05-11T13:48:42.154Z,5.07
2023-05-11T13:50:45.565Z,1.17
2023-05-11T13:52:48.846Z,2.53
2023-05-11T13:54:52.306Z,2.10
2023-05-11T13:56:57.894Z,1.10
2023-05-11T13:59:01.404Z,1.45
2023-05-11T14:01:08.323Z,2.15
2023-05-11T14:03:12.569Z,2.10
2023-05-11T14:05:16.384Z,1.33
2023-05-11T14:07:19.896Z,1.00
2023-05-11T14:09:24.413Z,1.45
2023-05-11T14:11:29.488Z,1.10
2023-05-11T14:13:34.401Z,0.75
2023-05-11T14:17:43.419Z,3.47
2023-05-11T14:21:51.273Z,1.70
2023-05-11T14:24:09.794Z,1.58
2023-05-11T14:26:14.297Z,3.28
2023-05-11T14:28:18.189Z,2.03
2023-05-11T14:30:23.220Z,3.83
2023-05-11T14:32:27.638Z,2.67
2023-05-11T14:34:31.593Z,2.40
2023-05-11T14:36:35.637Z,1.20
2023-05-11T14:38:39.201Z,0.93
2023-05-11T14:40:42.971Z,1.33
2023-05-11T14:42:47.050Z,0.65
2023-05-11T14:44:51.136Z,0.30
2023-05-11T14:46:56.405Z,1.55
2023-05-11T14:49:07.109Z,1.17
2023-05-11T14:51:10.588Z,0.93
2023-05-11T14:53:14.019Z,2.40
2023-05-11T14:55:17.792Z,1.05
2023-05-11T14:57:21.709Z,0.77
2023-05-11T14:59:25.602Z,1.13
2023-05-11T15:01:29.052Z,0.60
2023-05-11T15:03:34.487Z,0.85
2023-05-11T15:05:38.333Z,2.13
2023-05-11T15:07:42.038Z,1.17
2023-05-11T15:09:46.294Z,1.77
2023-05-11T15:11:50.214Z,1.75
2023-05-11T15:13:53.984Z,3.10
2023-05-11T15:15:58.636Z,3.65
2023-05-11T15:18:02.160Z,1.27
2023-05-11T15:20:08.748Z,0.90
2023-05-11T15:22:12.725Z,1.60
2023-05-11T15:24:17.279Z,1.77
2023-05-11T15:26:21.832Z,2.42
2023-05-11T15:28:26.238Z,1.27
2023-05-11T15:30:32.528Z,0.75
2023-05-11T15:32:37.008Z,1.27
2023-05-11T15:34:54.975Z,1.90
2023-05-11T15:37:03.968Z,2.40
2023-05-11T15:39:07.985Z,1.92
2023-05-11T15:41:11.529Z,1.02
2023-05-11T15:43:14.994Z,3.58
2023-05-11T15:45:18.862Z,1.95
2023-05-11T15:47:22.461Z,1.27
2023-05-11T15:49:25.873Z,0.95
2023-05-11T15:51:29.426Z,2.40
2023-05-11T15:53:34.186Z,5.53
2023-05-11T15:55:39.178Z,1.13
2023-05-11T15:57:42.646Z,1.95
2023-05-11T15:59:46.672Z,2.78
2023-05-11T16:01:50.360Z,2.95
2023-05-11T16:03:53.772Z,1.60
2023-05-11T16:05:57.184Z,2.63
2023-05-11T16:08:00.620Z,1.70
2023-05-11T16:10:06.788Z,2.58
2023-05-11T16:12:11.822Z,2.33
2023-05-11T16:16:20.226Z,3.97
2023-05-11T16:18:24.125Z,2.97
2023-05-11T16:20:27.921Z,3.38
2023-05-11T16:22:32.649Z,0.40
2023-05-11T16:26:41.384Z,1.77
2023-05-11T16:28:45.347Z,1.40
2023-05-11T16:30:49.045Z,4.75
2023-05-11T16:32:53.593Z,2.35
2023-05-11T16:37:01.218Z,1.60
2023-05-11T16:39:06.559Z,5.03
2023-05-11T16:41:11.592Z,2.47
2023-05-11T16:43:16.838Z,2.53
2023-05-11T16:45:21.115Z,1.67
2023-05-11T16:47:25.610Z,3.80
2023-05-11T16:49:30.036Z,2.00
2023-05-11T16:51:34.527Z,4.88
2023-05-11T16:53:38.431Z,3.83
2023-05-11T16:55:42.662Z,2.60
2023-05-11T16:57:46.372Z,5.03
2023-05-11T16:59:51.963Z,1.95
2023-05-11T17:01:55.582Z,2.47
2023-05-11T17:04:00.022Z,5.88
2023-05-11T17:06:03.949Z,4.20
2023-05-11T17:08:07.958Z,2.92
2023-05-11T17:10:12.620Z,2.67
2023-05-11T17:12:16.333Z,2.65
2023-05-11T17:14:19.965Z,3.53
2023-05-11T17:16:25.315Z,2.88
2023-05-11T17:18:29.604Z,0.85
2023-05-11T17:20:33.634Z,1.85
2023-05-11T17:22:37.754Z,2.13
2023-05-11T17:24:42.103Z,3.30
2023-05-11T17:26:48.295Z,1.67
2023-05-11T17:28:52.800Z,3.10
2023-05-11T17:30:56.699Z,2.45
2023-05-11T17:33:02.327Z,2.72
2023-05-11T17:35:08.461Z,3.60
2023-05-11T17:37:23.728Z,2.17
2023-05-11T17:39:36.073Z,1.13
2023-05-11T17:41:39.949Z,1.67
2023-05-11T17:43:43.487Z,2.08
2023-05-11T17:45:47.229Z,3.30
2023-05-11T17:47:50.851Z,4.55
2023-05-11T17:49:56.328Z,2.58
2023-05-11T17:52:00.178Z,3.25
2023-05-11T17:54:04.039Z,4.97
2023-05-11T17:56:10.094Z,4.18
2023-05-11T17:58:13.848Z,2.58
2023-05-11T18:00:18.755Z,4.05
2023-05-11T18:02:23.308Z,2.63
2023-05-11T18:04:27.414Z,3.65
2023-05-11T18:06:34.869Z,3.92
2023-05-11T18:08:38.595Z,4.35
2023-05-11T18:10:42.835Z,3.47
2023-05-11T18:12:47.744Z,3.65
2023-05-11T18:14:53.100Z,3.85
2023-05-11T18:16:58.118Z,4.90
2023-05-11T18:19:03.657Z,2.83
2023-05-11T18:21:10.953Z,3.15
2023-05-11T18:23:16.618Z,3.28
2023-05-11T18:25:21.677Z,5.75
2023-05-11T18:27:26.205Z,4.55
2023-05-11T18:29:30.760Z,3.60
2023-05-11T18:31:34.582Z,4.07
2023-05-11T18:33:38.429Z,2.97
2023-05-11T18:35:42.447Z,3.65
2023-05-11T18:37:46.053Z,3.38
2023-05-11T18:39:51.370Z,5.07
2023-05-11T18:41:55.171Z,2.70
2023-05-11T18:43:59.044Z,4.35
2023-05-11T18:46:02.740Z,2.80
2023-05-11T18:48:07.006Z,4.28
2023-05-11T18:50:11.811Z,6.45
2023-05-11T18:54:19.308Z,6.75
2023-05-11T18:56:24.379Z,4.53
2023-05-11T18:58:27.952Z,4.40
2023-05-11T19:00:37.180Z,8.57
2023-05-11T19:02:41.405Z,7.00
2023-05-11T19:04:45.222Z,4.13
2023-05-11T19:06:49.160Z,7.25
2023-05-11T19:08:53.893Z,5.68
2023-05-11T19:10:59.137Z,5.90
2023-05-11T19:13:04.357Z,3.80
2023-05-11T19:15:10.061Z,6.28
2023-05-11T19:17:13.861Z,6.93
2023-05-11T19:19:17.819Z,7.72
2023-05-11T19:21:22.594Z,8.27
2023-05-11T19:23:26.237Z,6.50
2023-05-11T19:25:29.855Z,5.50
2023-05-11T19:27:33.513Z,5.00
2023-05-11T19:29:38.905Z,5.10
2023-05-11T19:31:42.910Z,6.28
2023-05-11T19:33:46.662Z,4.80
2023-05-11T19:35:50.181Z,4.30
2023-05-11T19:37:54.137Z,4.65
2023-05-11T19:40:13.533Z,5.35
2023-05-11T19:42:35.708Z,7.47
2023-05-11T19:44:44.718Z,5.70
2023-05-11T19:46:48.436Z,8.80
2023-05-11T19:48:52.141Z,5.50
2023-05-11T19:50:55.793Z,7.10
2023-05-11T19:52:59.704Z,11.20
2023-05-11T19:55:04.061Z,7.63
2023-05-11T19:57:08.013Z,5.63
2023-05-11T19:59:11.719Z,8.00
2023-05-11T20:01:17.090Z,7.72
2023-05-11T20:03:21.604Z,6.47
2023-05-11T20:05:25.736Z,7.07
2023-05-11T20:07:29.932Z,7.25
2023-05-11T20:09:34.084Z,7.30
2023-05-11T20:11:38.757Z,6.18
2023-05-11T20:13:44.483Z,5.15
2023-05-11T20:15:49.046Z,12.00
2023-05-11T20:17:54.310Z,6.30
2023-05-11T20:19:58.687Z,5.25
2023-05-11T20:22:03.426Z,9.63
2023-05-11T20:24:07.974Z,7.43
2023-05-11T20:26:12.116Z,7.25
2023-05-11T20:28:16.280Z,6.10
2023-05-11T20:30:20.679Z,6.78
2023-05-11T20:32:24.830Z,6.80
2023-05-11T20:34:31.015Z,9.18
2023-05-11T20:36:35.627Z,8.98
2023-05-11T20:38:39.746Z,5.95
2023-05-11T20:40:44.964Z,8.75
2023-05-11T20:42:49.459Z,5.30
2023-05-11T20:44:54.456Z,6.82
2023-05-11T20:46:59.351Z,9.20
2023-05-11T20:49:03.822Z,6.38
2023-05-11T20:51:10.019Z,8.10
2023-05-11T20:53:15.785Z,9.55
2023-05-11T20:55:20.787Z,6.78
2023-05-11T20:57:25.895Z,7.25
2023-05-11T21:01:39.690Z,7.60
2023-05-11T21:03:43.771Z,9.27
2023-05-11T21:05:47.871Z,6.05
2023-05-11T21:07:53.751Z,8.05
2023-05-11T21:09:58.034Z,6.70
2023-05-11T21:12:02.535Z,6.38
2023-05-11T21:14:07.081Z,8.80
2023-05-11T21:16:11.009Z,6.30
2023-05-11T21:18:16.113Z,6.32
2023-05-11T21:20:22.020Z,7.07
2023-05-11T21:22:26.665Z,4.53
2023-05-11T21:24:32.925Z,7.45
2023-05-11T21:26:36.645Z,7.00
2023-05-11T21:28:40.912Z,5.60
2023-05-11T21:30:44.659Z,7.68
2023-05-11T21:32:50.784Z,5.70
2023-05-11T21:34:54.905Z,5.85
2023-05-11T21:36:59.927Z,7.55
2023-05-11T21:41:11.409Z,7.35
2023-05-11T21:43:15.318Z,6.68
2023-05-11T21:45:20.099Z,6.55
2023-05-11T21:47:23.718Z,4.60
2023-05-11T21:49:27.382Z,7.50
2023-05-11T21:51:31.445Z,5.35
2023-05-11T21:53:35.671Z,6.45
2023-05-11T21:55:39.811Z,6.47
2023-05-11T21:57:45.185Z,5.28
2023-05-11T21:59:50.580Z,5.32
2023-05-11T22:01:57.366Z,7.03
2023-05-11T22:04:01.631Z,5.78
2023-05-11T22:06:06.295Z,5.40
2023-05-11T22:08:14.913Z,5.53
2023-05-11T22:10:19.929Z,7.13
2023-05-11T22:12:23.866Z,5.00
2023-05-11T22:14:29.320Z,8.10
2023-05-11T22:16:33.558Z,10.57
2023-05-11T22:18:40.654Z,7.45
2023-05-11T22:20:46.583Z,6.75
2023-05-11T22:22:50.330Z,8.43
2023-05-11T22:24:54.643Z,8.90
2023-05-11T22:26:59.568Z,5.95
2023-05-11T22:29:03.511Z,8.70
2023-05-11T22:31:09.392Z,7.43
2023-05-11T22:33:13.851Z,6.40
2023-05-11T22:35:17.999Z,7.88
2023-05-11T22:37:22.485Z,10.25
2023-05-11T22:39:26.320Z,9.25
2023-05-11T22:41:30.646Z,8.07
2023-05-11T22:43:34.448Z,5.38
2023-05-11T22:45:38.740Z,6.28
2023-05-11T22:47:43.969Z,5.80
2023-05-11T22:49:48.311Z,8.23
2023-05-11T22:51:52.924Z,6.97
2023-05-11T22:53:56.748Z,6.28
2023-05-11T22:56:04.323Z,7.45
2023-05-11T22:58:08.300Z,6.35
2023-05-11T23:00:13.697Z,9.07
2023-05-11T23:02:17.509Z,7.20
2023-05-11T23:04:22.975Z,8.20
2023-05-11T23:06:27.021Z,8.20
2023-05-11T23:08:30.874Z,8.43
2023-05-11T23:10:34.590Z,8.90
2023-05-11T23:12:38.111Z,11.43
2023-05-11T23:14:42.045Z,10.25
2023-05-11T23:16:45.684Z,9.95
2023-05-11T23:18:49.363Z,13.02
2023-05-11T23:20:58.551Z,11.00
2023-05-11T23:23:02.276Z,8.55
2023-05-11T23:25:06.317Z,10.40
2023-05-11T23:27:10.036Z,10.48
2023-05-11T23:29:13.948Z,9.98
2023-05-11T23:31:18.206Z,7.97
2023-05-11T23:33:22.161Z,8.30
2023-05-11T23:35:25.785Z,8.85
2023-05-11T23:37:34.051Z,9.77
2023-05-11T23:39:38.629Z,8.82
2023-05-11T23:41:42.473Z,8.38
2023-05-11T23:43:46.127Z,10.75
2023-05-11T23:45:50.077Z,8.68
2023-05-11T23:47:53.942Z,9.52
2023-05-11T23:49:57.682Z,11.50
2023-05-11T23:52:01.397Z,15.05
2023-05-11T23:54:06.866Z,10.25
2023-05-11T23:56:10.757Z,12.27
2023-05-11T23:58:14.273Z,9.43
